Time;durP1;ratioP1;P1;durP2;ratioP2;P2;SDS_P1;SDS_P2;PMS_P1;PMS_P2;Temp;Humidity;BMP_temperature;BMP_pressure;BME280_temperature;BME280_humidity;BME280_pressure;Samples;Min_cycle;Max_cycle;Signal;HPM_P1;HPM_P2
2022/12/29 00:01:09;;;;;;;5.95;2.55;;;;;;;9.66;100.00;99895.41;5070632;28;20048;-54
2022/12/29 00:03:37;;;;;;;4.97;2.72;;;;;;;9.68;100.00;99876.91;5070219;28;20048;-53
2022/12/29 00:06:07;;;;;;;4.30;2.42;;;;;;;9.66;100.00;99878.81;5073188;28;20461;-53
2022/12/29 00:08:41;;;;;;;6.10;2.60;;;;;;;9.73;100.00;99880.03;5073517;28;20048;-53
2022/12/29 00:11:11;;;;;;;6.60;2.67;;;;;;;9.70;100.00;99865.34;5073618;28;20057;-53
2022/12/29 00:16:25;;;;;;;5.70;2.50;;;;;;;9.67;100.00;99870.84;5072178;28;20051;-52
2022/12/29 00:18:53;;;;;;;6.72;2.97;;;;;;;9.69;100.00;99860.22;5072817;28;20047;-49
2022/12/29 00:35:30;;;;;;;5.35;2.92;;;;;;;9.68;100.00;99827.03;5070878;28;20037;-58
2022/12/29 00:46:21;;;;;;;4.88;2.67;;;;;;;9.68;100.00;99806.03;5073192;28;20053;-58
2022/12/29 00:51:35;;;;;;;5.15;2.47;;;;;;;9.68;100.00;99809.50;5073082;28;20047;-59
2022/12/29 00:54:04;;;;;;;4.15;2.33;;;;;;;9.73;100.00;99803.88;5073119;28;20049;-59
2022/12/29 00:56:32;;;;;;;4.45;2.20;;;;;;;9.73;100.00;99801.25;5073246;28;20522;-59
2022/12/29 00:59:01;;;;;;;5.32;2.45;;;;;;;9.71;100.00;99803.19;5072894;28;20045;-59
2022/12/29 01:01:30;;;;;;;4.05;2.03;;;;;;;9.72;100.00;99802.19;5073156;28;20545;-59
2022/12/29 01:03:58;;;;;;;4.43;1.90;;;;;;;9.71;100.00;99797.94;5071731;28;20052;-59
2022/12/29 01:06:31;;;;;;;4.85;2.00;;;;;;;9.71;100.00;99797.94;5070878;28;20048;-59
2022/12/29 01:11:47;;;;;;;3.80;1.77;;;;;;;9.67;100.00;99793.84;5072461;28;20053;-59
2022/12/29 01:14:15;;;;;;;5.05;2.25;;;;;;;9.69;100.00;99790.16;5071948;28;20522;-59
2022/12/29 01:16:46;;;;;;;4.43;1.67;;;;;;;9.70;100.00;99788.38;5072445;28;20102;-59
2022/12/29 01:19:15;;;;;;;3.83;1.45;;;;;;;9.70;100.00;99783.13;5072616;28;20511;-58
2022/12/29 01:21:45;;;;;;;1.98;1.20;;;;;;;9.71;100.00;99787.44;5072196;28;20048;-59
2022/12/29 01:24:14;;;;;;;3.85;1.23;;;;;;;9.67;100.00;99780.72;5069769;28;20458;-59
2022/12/29 01:26:42;;;;;;;3.28;1.15;;;;;;;9.63;100.00;99774.88;5070198;28;20110;-59
2022/12/29 01:29:14;;;;;;;3.88;1.27;;;;;;;9.59;100.00;99778.72;5072288;28;20521;-59
2022/12/29 01:31:42;;;;;;;2.65;1.38;;;;;;;9.60;100.00;99781.22;5072255;28;20082;-59
2022/12/29 01:34:10;;;;;;;3.00;1.17;;;;;;;9.57;100.00;99768.34;5072315;28;20597;-59
2022/12/29 01:36:38;;;;;;;3.70;1.30;;;;;;;9.55;100.00;99766.78;5072593;28;20088;-59
2022/12/29 01:39:06;;;;;;;1.75;1.02;;;;;;;9.55;100.00;99762.34;5072597;28;20569;-59
2022/12/29 01:41:34;;;;;;;2.25;1.20;;;;;;;9.53;100.00;99753.78;5072532;28;20072;-59
2022/12/29 01:44:03;;;;;;;3.80;1.40;;;;;;;9.49;100.00;99760.22;5071714;28;20074;-59
2022/12/29 01:46:35;;;;;;;2.25;1.20;;;;;;;9.49;100.00;99757.59;5069428;28;20060;-59
2022/12/29 01:49:06;;;;;;;;;;;;;;;9.50;100.00;99767.13;5071525;28;20094;-59
2022/12/29 01:51:38;;;;;;;4.45;1.70;;;;;;;9.46;100.00;99755.19;5072574;28;19920;-59
2022/12/29 01:54:31;;;;;;;3.83;1.65;;;;;;;9.46;100.00;99736.81;5072700;28;20068;-53
2022/12/29 01:57:08;;;;;;;3.08;1.83;;;;;;;9.45;100.00;99753.53;5070819;28;20075;-53
2022/12/29 01:59:39;;;;;;;;;;;;;;;9.50;100.00;99753.16;5072981;28;20049;-53
2022/12/29 02:02:09;;;;;;;3.90;2.17;;;;;;;9.48;100.00;99742.78;5071970;28;19920;-52
2022/12/29 02:04:44;;;;;;;4.00;1.80;;;;;;;9.51;100.00;99749.59;5072259;28;20357;-52
2022/12/29 02:07:18;;;;;;;4.63;2.00;;;;;;;9.57;100.00;99734.22;5068587;28;20052;-53
2022/12/29 02:09:48;;;;;;;3.00;1.80;;;;;;;9.62;100.00;99741.72;5069163;28;20044;-53
2022/12/29 02:12:18;;;;;;;3.72;1.98;;;;;;;9.60;100.00;99749.72;5071663;28;20048;-54
2022/12/29 02:14:48;;;;;;;3.67;1.70;;;;;;;9.67;100.00;99743.97;5071603;28;20518;-53
2022/12/29 02:17:29;;;;;;;5.75;2.05;;;;;;;9.73;100.00;99748.75;5071360;28;20056;-51
2022/12/29 02:20:35;;;;;;;4.47;1.88;;;;;;;9.74;100.00;99742.53;5071434;28;20048;-52
2022/12/29 02:23:27;;;;;;;5.13;1.70;;;;;;;9.76;100.00;99738.84;5069387;28;20072;-51
2022/12/29 02:26:12;;;;;;;3.20;1.45;;;;;;;9.77;100.00;99737.88;5068818;28;20037;-52
2022/12/29 02:29:13;;;;;;;6.25;1.60;;;;;;;9.80;100.00;99744.66;5071911;28;20051;-52
2022/12/29 02:31:52;;;;;;;5.03;1.67;;;;;;;9.80;100.00;99735.00;5052015;28;20510;-52
2022/12/29 02:34:42;;;;;;;3.65;1.30;;;;;;;9.91;100.00;99742.03;5055079;28;20388;-60
2022/12/29 02:37:23;;;;;;;2.17;1.13;;;;;;;9.90;100.00;99732.47;5068579;28;20056;-58
2022/12/29 02:39:58;;;;;;;4.57;1.20;;;;;;;9.92;100.00;99734.97;5072323;28;20055;-59
2022/12/29 02:42:36;;;;;;;3.75;1.50;;;;;;;9.97;100.00;99723.16;5076865;28;20137;-59
2022/12/29 02:45:11;;;;;;;2.22;1.10;;;;;;;10.01;100.00;99726.38;5075020;28;20049;-58
2022/12/29 02:47:48;;;;;;;4.07;1.20;;;;;;;10.07;100.00;99725.03;5075845;28;20403;-58
2022/12/29 02:50:24;;;;;;;4.47;1.00;;;;;;;10.04;100.00;99723.50;5075624;28;20098;-58
2022/12/29 02:52:59;;;;;;;3.95;1.00;;;;;;;10.09;100.00;99730.97;5073512;28;20399;-58
2022/12/29 02:55:26;;;;;;;3.28;1.40;;;;;;;10.12;100.00;99720.25;5073493;28;20052;-58
2022/12/29 02:58:16;;;;;;;2.83;0.80;;;;;;;10.12;100.00;99723.69;5075475;28;20383;-58
2022/12/29 03:01:04;;;;;;;2.28;0.85;;;;;;;10.13;100.00;99714.88;5075572;28;20505;-59
2022/12/29 03:03:47;;;;;;;2.70;1.00;;;;;;;10.15;100.00;99722.63;5075748;28;20066;-58
2022/12/29 03:06:33;;;;;;;3.35;0.90;;;;;;;10.17;100.00;99725.97;5075445;28;20037;-59
2022/12/29 03:09:15;;;;;;;3.10;0.90;;;;;;;10.20;100.00;99724.88;5071909;28;20605;-52
2022/12/29 03:12:09;;;;;;;4.15;0.90;;;;;;;10.19;100.00;99713.53;5070171;28;20052;-48
2022/12/29 03:17:41;;;;;;;3.30;0.80;;;;;;;10.19;100.00;99692.50;5074988;28;20089;-49
2022/12/29 03:20:19;;;;;;;2.40;0.80;;;;;;;10.21;100.00;99693.25;5074566;28;20050;-49
2022/12/29 03:22:49;;;;;;;5.50;0.90;;;;;;;10.19;100.00;99703.03;5074548;28;20048;-50
2022/12/29 03:25:23;;;;;;;3.65;0.93;;;;;;;10.25;100.00;99702.53;5074427;28;20116;-49
2022/12/29 03:27:56;;;;;;;3.50;0.98;;;;;;;10.23;100.00;99708.88;5074368;28;20094;-51
2022/12/29 03:30:24;;;;;;;;;;;;;;;10.26;100.00;99714.69;5070610;28;20060;-54
2022/12/29 03:32:55;;;;;;;4.88;1.00;;;;;;;10.26;100.00;99704.19;5069478;28;19963;-50
2022/12/29 03:35:28;;;;;;;4.47;0.85;;;;;;;10.30;100.00;99705.59;5074273;28;20419;-49
2022/12/29 03:38:03;;;;;;;2.70;0.70;;;;;;;10.29;100.00;99703.94;5074476;28;20174;-52
2022/12/29 03:40:33;;;;;;;3.25;0.98;;;;;;;10.24;100.00;99700.00;5071332;28;20048;-54
2022/12/29 03:43:02;;;;;;;3.72;0.70;;;;;;;10.23;100.00;99693.94;5070148;28;20126;-52
2022/12/29 03:45:31;;;;;;;7.47;1.00;;;;;;;10.21;100.00;99690.59;5074209;28;20492;-52
2022/12/29 03:47:59;;;;;;;3.53;0.95;;;;;;;10.23;100.00;99701.81;5074097;28;20148;-52
2022/12/29 03:50:28;;;;;;;3.05;0.80;;;;;;;10.25;100.00;99694.66;5073916;28;20041;-53
2022/12/29 03:52:57;;;;;;;2.38;0.85;;;;;;;10.23;100.00;99701.00;5072627;28;20063;-53
2022/12/29 03:55:25;;;;;;;1.35;0.80;;;;;;;10.19;100.00;99695.13;5074369;28;20040;-59
2022/12/29 03:57:53;;;;;;;4.20;1.08;;;;;;;10.21;100.00;99710.78;5074202;28;20060;-59
2022/12/29 04:00:21;;;;;;;3.60;0.88;;;;;;;10.23;100.00;99709.69;5073450;28;20052;-59
2022/12/29 04:02:49;;;;;;;6.30;0.70;;;;;;;10.20;100.00;99715.22;5071073;28;20473;-60
2022/12/29 04:05:18;;;;;;;3.28;0.85;;;;;;;10.20;100.00;99709.09;5073359;28;20127;-60
2022/12/29 04:07:47;;;;;;;3.58;0.90;;;;;;;10.19;100.00;99708.28;5074084;28;20059;-59
2022/12/29 04:10:16;;;;;;;3.55;0.90;;;;;;;10.15;100.00;99710.31;5074196;28;20389;-59
2022/12/29 04:12:46;;;;;;;4.00;0.90;;;;;;;10.14;100.00;99715.69;5073576;28;20525;-59
2022/12/29 04:15:14;;;;;;;4.03;1.50;;;;;;;10.15;100.00;99718.19;5074090;28;20048;-59
2022/12/29 04:17:43;;;;;;;4.57;1.02;;;;;;;10.14;100.00;99726.19;5071460;28;20076;-59
2022/12/29 04:23:02;;;;;;;4.22;0.73;;;;;;;10.12;100.00;99715.00;5073859;28;20124;-60
2022/12/29 04:25:32;;;;;;;4.88;0.80;;;;;;;10.14;100.00;99699.94;5073783;28;20135;-59
2022/12/29 04:28:01;;;;;;;4.63;0.93;;;;;;;10.08;100.00;99718.84;5073892;28;20052;-59
2022/12/29 04:30:32;;;;;;;4.20;0.82;;;;;;;10.07;100.00;99704.84;5073823;28;20064;-60
2022/12/29 04:33:01;;;;;;;3.13;0.82;;;;;;;10.06;100.00;99708.44;5073832;28;20044;-59
2022/12/29 04:35:29;;;;;;;2.15;0.80;;;;;;;10.10;100.00;99715.13;5073543;28;20056;-59
2022/12/29 04:38:00;;;;;;;3.22;0.80;;;;;;;10.05;100.00;99721.69;5073423;28;20131;-59
2022/12/29 04:40:29;;;;;;;5.38;1.10;;;;;;;10.01;100.00;99733.41;5073611;28;20462;-59
2022/12/29 04:42:57;;;;;;;2.03;0.80;;;;;;;9.97;100.00;99720.53;5073326;28;20048;-58
2022/12/29 04:45:25;;;;;;;4.80;1.10;;;;;;;9.90;100.00;99729.84;5071451;28;20041;-58
2022/12/29 04:47:53;;;;;;;4.60;1.10;;;;;;;9.87;100.00;99730.09;5070660;28;20049;-59
2022/12/29 04:50:22;;;;;;;3.25;0.98;;;;;;;9.90;100.00;99729.84;5073231;28;20067;-58
2022/12/29 04:52:50;;;;;;;2.90;0.90;;;;;;;9.84;100.00;99727.72;5073247;28;20345;-58
2022/12/29 04:55:18;;;;;;;3.63;1.00;;;;;;;9.83;100.00;99718.19;5071477;28;20044;-58
2022/12/29 04:57:47;;;;;;;4.70;1.15;;;;;;;9.82;100.00;99732.25;5069436;28;20056;-58
2022/12/29 05:00:16;;;;;;;5.68;0.98;;;;;;;9.84;100.00;99746.09;5072802;28;20052;-58
2022/12/29 05:02:46;;;;;;;4.00;1.00;;;;;;;9.81;100.00;99741.91;5072656;28;20048;-58
2022/12/29 05:05:15;;;;;;;2.72;0.95;;;;;;;9.81;100.00;99744.53;5072840;28;20052;-58
2022/12/29 05:07:43;;;;;;;4.68;0.98;;;;;;;9.84;100.00;99753.97;5072630;28;20033;-57
2022/12/29 05:10:12;;;;;;;6.10;1.20;;;;;;;9.76;100.00;99791.34;5072771;28;20064;-56
2022/12/29 05:12:41;;;;;;;5.90;1.30;;;;;;;9.51;100.00;99755.66;5072386;28;20499;-57
2022/12/29 05:15:11;;;;;;;7.57;1.63;;;;;;;9.45;100.00;99761.41;5071151;28;20482;-57
2022/12/29 05:17:40;;;;;;;4.50;1.10;;;;;;;9.42;100.00;99759.84;5070808;28;20049;-57
2022/12/29 05:20:09;;;;;;;2.97;1.23;;;;;;;9.41;100.00;99770.47;5069693;28;20472;-58
2022/12/29 05:22:37;;;;;;;2.58;0.88;;;;;;;9.32;100.00;99781.69;5071940;28;20048;-58
2022/12/29 05:25:06;;;;;;;3.95;1.00;;;;;;;9.32;100.00;99795.63;5072673;28;20052;-58
2022/12/29 05:27:34;;;;;;;2.78;1.10;;;;;;;9.29;100.00;99788.00;5072590;28;20576;-53
2022/12/29 05:30:03;;;;;;;4.53;1.35;;;;;;;9.26;100.00;99790.84;5072488;28;20072;-54
2022/12/29 05:32:33;;;;;;;7.55;1.27;;;;;;;9.28;100.00;99789.78;5071236;28;20422;-52
2022/12/29 05:35:01;;;;;;;5.22;1.60;;;;;;;9.20;100.00;99794.75;5072439;28;20553;-54
2022/12/29 05:37:29;;;;;;;4.95;1.13;;;;;;;9.07;100.00;99794.88;5072185;28;20048;-55
2022/12/29 05:39:59;;;;;;;2.50;1.25;;;;;;;9.01;100.00;99803.19;5072587;28;20422;-54
2022/12/29 05:42:27;;;;;;;5.53;1.50;;;;;;;9.05;100.00;99811.66;5072034;28;20044;-55
2022/12/29 05:44:55;;;;;;;4.20;1.25;;;;;;;8.96;100.00;99815.81;5071785;28;20102;-51
2022/12/29 05:47:23;;;;;;;5.38;1.30;;;;;;;8.88;100.00;99818.19;5072163;28;20041;-58
2022/12/29 05:49:52;;;;;;;4.72;1.25;;;;;;;8.86;100.00;99810.44;5071884;28;20561;-58
2022/12/29 05:52:21;;;;;;;4.95;1.35;;;;;;;8.82;100.00;99816.00;5069106;28;20123;-58
2022/12/29 05:54:49;;;;;;;5.93;1.50;;;;;;;8.72;100.00;99806.19;5069727;28;20559;-58
2022/12/29 05:57:17;;;;;;;6.18;1.75;;;;;;;8.73;100.00;99815.75;5071826;28;20045;-58
2022/12/29 05:59:45;;;;;;;6.70;1.95;;;;;;;8.72;100.00;99815.84;5071726;28;20585;-58
2022/12/29 06:02:13;;;;;;;7.38;1.98;;;;;;;8.74;100.00;99820.03;5071770;28;20395;-58
2022/12/29 06:04:42;;;;;;;7.75;1.60;;;;;;;8.71;100.00;99808.94;5071763;28;20399;-58
2022/12/29 06:07:11;;;;;;;6.68;2.05;;;;;;;8.70;100.00;99817.75;5071857;28;20056;-59
2022/12/29 06:09:39;;;;;;;5.80;1.20;;;;;;;8.67;100.00;99808.34;5072233;28;20036;-58
2022/12/29 06:12:08;;;;;;;6.55;1.30;;;;;;;8.66;100.00;99808.44;5072139;28;20041;-58
2022/12/29 06:14:36;;;;;;;12.65;1.63;;;;;;;8.66;100.00;99813.66;5072645;28;20044;-59
2022/12/29 06:17:04;;;;;;;5.30;1.02;;;;;;;8.67;100.00;99815.34;5074824;28;20055;-58
2022/12/29 06:19:32;;;;;;;8.80;1.50;;;;;;;8.59;100.00;99808.91;5073158;28;20098;-58
2022/12/29 06:22:00;;;;;;;8.25;1.13;;;;;;;8.63;100.00;99817.38;5074218;28;20094;-58
2022/12/29 06:24:30;;;;;;;9.77;1.38;;;;;;;8.61;100.00;99820.09;5074696;28;20055;-58
2022/12/29 06:26:58;;;;;;;7.20;1.20;;;;;;;8.65;100.00;99822.50;5073524;28;20040;-58
2022/12/29 06:29:26;;;;;;;8.75;1.20;;;;;;;8.58;100.00;99829.97;5073617;28;20136;-58
2022/12/29 06:31:57;;;;;;;6.35;1.00;;;;;;;8.55;100.00;99824.94;5075332;28;20044;-58
2022/12/29 06:34:25;;;;;;;6.35;1.00;;;;;;;8.49;100.00;99833.25;5075249;28;20082;-58
2022/12/29 06:36:54;;;;;;;9.45;1.05;;;;;;;8.53;100.00;99825.06;5071351;28;20106;-53
2022/12/29 06:39:24;;;;;;;7.05;1.48;;;;;;;8.46;100.00;99827.28;5073968;28;20037;-53
2022/12/29 06:41:54;;;;;;;6.53;1.40;;;;;;;8.48;100.00;99835.06;5072054;28;20102;-52
2022/12/29 06:44:23;;;;;;;4.50;1.05;;;;;;;8.50;100.00;99843.63;5072114;28;20087;-54
2022/12/29 06:46:51;;;;;;;5.43;1.50;;;;;;;8.50;100.00;99838.38;5075121;28;20135;-53
2022/12/29 06:49:19;;;;;;;6.20;0.90;;;;;;;8.54;100.00;99828.53;5075057;28;20090;-54
2022/12/29 06:51:47;;;;;;;8.07;1.30;;;;;;;8.54;100.00;99828.53;5073870;28;20048;-53
2022/12/29 06:54:16;;;;;;;6.25;1.30;;;;;;;8.57;100.00;99830.91;5075168;28;20193;-52
2022/12/29 06:56:44;;;;;;;7.90;1.08;;;;;;;8.60;100.00;99831.53;5071347;28;20549;-53
2022/12/29 06:59:14;;;;;;;5.57;1.10;;;;;;;8.64;100.00;99832.13;5072054;28;20106;-55
2022/12/29 07:01:42;;;;;;;6.70;1.25;;;;;;;8.65;100.00;99835.59;5075008;28;20052;-54
2022/12/29 07:04:10;;;;;;;6.50;1.20;;;;;;;8.68;100.00;99840.63;5074861;28;20399;-54
2022/12/29 07:06:40;;;;;;;5.13;0.98;;;;;;;8.67;100.00;99826.69;5074969;28;20534;-54
2022/12/29 07:09:09;;;;;;;5.13;1.20;;;;;;;8.70;100.00;99843.94;5074874;28;20072;-59
2022/12/29 07:11:37;;;;;;;7.43;1.02;;;;;;;8.72;100.00;99840.28;5075409;28;20041;-58
2022/12/29 07:14:05;;;;;;;5.90;1.05;;;;;;;8.74;100.00;99840.16;5075166;28;20097;-59
2022/12/29 07:16:35;;;;;;;5.95;1.10;;;;;;;8.76;100.00;99854.00;5072570;28;20041;-59
2022/12/29 07:19:03;;;;;;;5.13;1.05;;;;;;;8.79;100.00;99845.91;5072190;28;20044;-59
2022/12/29 07:21:31;;;;;;;7.90;1.88;;;;;;;8.80;100.00;99850.22;5074118;28;20465;-59
2022/12/29 07:23:59;;;;;;;5.25;1.10;;;;;;;8.79;100.00;99838.91;5074786;28;20499;-59
2022/12/29 07:26:27;;;;;;;10.25;1.35;;;;;;;8.81;100.00;99849.25;5074455;28;20150;-58
2022/12/29 07:29:03;;;;;;;9.63;1.52;;;;;;;8.80;100.00;99850.22;5074495;28;20094;-59
2022/12/29 07:31:31;;;;;;;6.43;1.00;;;;;;;8.78;100.00;99847.69;5074636;28;20121;-59
2022/12/29 07:34:01;;;;;;;6.18;1.20;;;;;;;8.82;100.00;99852.72;5074406;28;20564;-59
2022/12/29 07:36:29;;;;;;;6.57;1.10;;;;;;;8.85;100.00;99855.97;5073941;28;20052;-59
2022/12/29 07:39:01;;;;;;;9.05;1.25;;;;;;;8.88;100.00;99862.75;5071920;28;20048;-60
2022/12/29 07:41:29;;;;;;;3.97;1.17;;;;;;;8.87;100.00;99863.69;5072286;28;20060;-58
2022/12/29 07:43:58;;;;;;;10.52;1.80;;;;;;;8.87;100.00;99858.47;5072649;28;20628;-59
2022/12/29 07:46:26;;;;;;;4.18;0.98;;;;;;;8.89;100.00;99870.50;5071241;28;20893;-58
2022/12/29 07:49:16;;;;;;;7.45;1.10;;;;;;;8.94;100.00;99875.41;5074008;28;20048;-59
2022/12/29 07:51:44;;;;;;;8.80;1.77;;;;;;;8.95;100.00;99877.91;5071605;28;20071;-58
2022/12/29 07:54:12;;;;;;;8.70;1.50;;;;;;;8.94;100.00;99889.38;5072697;28;20036;-58
2022/12/29 07:56:41;;;;;;;8.70;1.33;;;;;;;8.92;100.00;99906.16;5074307;28;20044;-58
2022/12/29 07:59:12;;;;;;;11.52;2.13;;;;;;;8.92;100.00;99899.13;5073753;28;20040;-58
2022/12/29 08:01:40;;;;;;;7.63;1.05;;;;;;;8.94;100.00;99910.34;5072960;28;20056;-59
2022/12/29 08:04:09;;;;;;;9.02;1.55;;;;;;;8.96;100.00;99912.84;5074029;28;20098;-58
2022/12/29 08:06:38;;;;;;;8.13;1.48;;;;;;;8.96;100.00;99916.31;5072346;28;20094;-58
2022/12/29 08:09:07;;;;;;;8.00;1.70;;;;;;;8.96;100.00;99910.25;5071540;28;20040;-58
2022/12/29 08:11:45;;;;;;;8.70;1.20;;;;;;;8.92;100.00;99909.63;5072746;28;20052;-58
2022/12/29 08:14:13;;;;;;;10.27;1.80;;;;;;;8.92;100.00;99906.16;5073509;28;20127;-52
2022/12/29 08:16:42;;;;;;;8.80;1.80;;;;;;;8.89;100.00;99903.75;5073790;28;20048;-57
2022/12/29 08:19:11;;;;;;;6.35;1.60;;;;;;;8.93;100.00;99919.16;5073617;28;20041;-58
2022/12/29 08:21:40;;;;;;;9.25;1.70;;;;;;;8.84;100.00;99925.06;5073485;28;20415;-58
2022/12/29 08:24:10;;;;;;;8.95;1.30;;;;;;;8.84;100.00;99925.06;5073679;28;20041;-53
2022/12/29 08:26:38;;;;;;;6.97;1.40;;;;;;;8.83;100.00;99923.38;5073613;28;20498;-53
2022/12/29 08:29:06;;;;;;;4.90;1.15;;;;;;;8.81;100.00;99941.03;5073167;28;20037;-52
2022/12/29 08:31:34;;;;;;;7.05;1.10;;;;;;;8.90;100.00;99923.78;5069789;28;20159;-52
2022/12/29 08:34:03;;;;;;;10.32;1.50;;;;;;;8.92;100.00;99925.34;5069887;28;20051;-54
2022/12/29 08:36:31;;;;;;;8.40;1.42;;;;;;;8.92;100.00;99922.72;5071561;28;20048;-52
2022/12/29 08:39:01;;;;;;;8.90;1.42;;;;;;;8.98;100.00;99917.97;5072431;28;20048;-53
2022/12/29 08:41:29;;;;;;;10.73;1.38;;;;;;;9.00;100.00;99923.94;5071773;28;20147;-53
2022/12/29 08:43:57;;;;;;;14.10;3.08;;;;;;;9.03;100.00;99923.75;5069752;28;20127;-50
2022/12/29 08:46:25;;;;;;;7.60;1.40;;;;;;;9.05;100.00;99919.19;5070867;28;20044;-57
2022/12/29 08:48:54;;;;;;;10.27;1.98;;;;;;;9.09;100.00;99918.03;5073028;28;20500;-58
2022/12/29 08:51:22;;;;;;;6.88;1.30;;;;;;;9.17;100.00;99904.34;5072623;28;20044;-58
2022/12/29 08:53:52;;;;;;;9.27;1.50;;;;;;;9.27;100.00;99915.81;5072617;28;20428;-58
2022/12/29 08:56:23;;;;;;;9.40;1.95;;;;;;;9.30;100.00;99916.44;5072231;28;20076;-59
2022/12/29 08:58:52;;;;;;;13.27;2.17;;;;;;;9.35;100.00;99915.25;5069520;28;20052;-59
2022/12/29 09:01:20;;;;;;;8.13;1.65;;;;;;;9.32;100.00;99911.06;5067750;28;20053;-59
2022/12/29 09:03:49;;;;;;;12.00;2.22;;;;;;;9.28;100.00;99920.97;5071562;28;20523;-59
2022/12/29 09:06:37;;;;;;;6.53;1.88;;;;;;;9.26;100.00;99919.41;5072206;28;20127;-50
2022/12/29 09:09:08;;;;;;;8.15;1.60;;;;;;;9.28;100.00;99917.50;5072055;28;20395;-59
2022/12/29 09:11:37;;;;;;;13.73;2.13;;;;;;;9.25;100.00;99910.69;5072328;28;20044;-58
2022/12/29 09:14:06;;;;;;;9.00;1.40;;;;;;;9.24;100.00;99910.81;5070563;28;20052;-59
2022/12/29 09:16:35;;;;;;;10.00;2.15;;;;;;;9.23;100.00;99925.72;5067649;28;20074;-54
2022/12/29 09:19:04;;;;;;;12.40;2.67;;;;;;;9.22;100.00;99928.47;5071270;28;20127;-52
2022/12/29 09:21:32;;;;;;;9.65;1.95;;;;;;;9.12;100.00;99918.66;5072777;28;20051;-50
2022/12/29 09:24:00;;;;;;;14.48;3.10;;;;;;;9.03;100.00;99923.75;5072500;28;20123;-50
2022/12/29 09:26:28;;;;;;;14.13;2.42;;;;;;;8.92;100.00;99927.16;5072099;28;20795;-49
2022/12/29 09:28:58;;;;;;;9.10;1.50;;;;;;;8.95;100.00;99937.41;5072042;28;20044;-52
2022/12/29 09:31:28;;;;;;;12.23;2.28;;;;;;;8.86;100.00;99938.06;5072204;28;20519;-54
2022/12/29 09:33:56;;;;;;;8.55;2.22;;;;;;;8.90;100.00;99936.88;5072007;28;20585;-52
2022/12/29 09:36:27;;;;;;;10.63;1.98;;;;;;;8.96;100.00;99945.16;5069934;28;20059;-54
2022/12/29 09:38:55;;;;;;;10.18;1.85;;;;;;;8.92;100.00;99938.47;5069157;28;20398;-58
2022/12/29 09:41:30;;;;;;;12.27;1.58;;;;;;;8.94;100.00;99940.97;5071887;28;20048;-58
2022/12/29 09:44:07;;;;;;;10.07;1.60;;;;;;;8.98;100.00;99936.34;5072528;28;20503;-54
2022/12/29 09:46:40;;;;;;;10.23;1.52;;;;;;;9.05;100.00;99948.91;5072317;28;20063;-54
2022/12/29 09:49:17;;;;;;;8.20;1.63;;;;;;;9.04;100.00;99952.47;5072072;28;20047;-54
2022/12/29 09:51:50;;;;;;;9.23;1.83;;;;;;;9.05;100.00;99956.78;5074818;28;20547;-53
2022/12/29 09:54:28;;;;;;;7.22;1.17;;;;;;;9.09;100.00;99965.25;5075841;28;20052;-53
2022/12/29 09:56:57;;;;;;;7.10;1.17;;;;;;;9.07;100.00;99961.91;5072559;28;20049;-53
2022/12/29 09:59:37;;;;;;;10.32;2.38;;;;;;;9.04;100.00;99975.22;5074390;28;20476;-56
2022/12/29 10:02:18;;;;;;;9.43;1.50;;;;;;;9.05;100.00;99979.53;5076109;28;20044;-57
2022/12/29 10:04:47;;;;;;;10.38;1.45;;;;;;;9.00;100.00;99977.25;5075664;28;20476;-58
2022/12/29 10:07:24;;;;;;;7.30;1.20;;;;;;;8.98;100.00;99986.19;5073243;28;20053;-53
2022/12/29 10:10:10;;;;;;;9.27;1.63;;;;;;;8.89;100.00;99983.25;5073831;28;20086;-54
2022/12/29 10:12:53;;;;;;;9.80;1.60;;;;;;;8.85;100.00;99994.91;5076094;28;20052;-51
2022/12/29 10:15:37;;;;;;;6.75;1.40;;;;;;;8.84;100.00;100005.53;5075024;28;20040;-55
2022/12/29 10:18:22;;;;;;;8.75;1.40;;;;;;;8.76;100.00;99999.03;5070880;28;20045;-55
2022/12/29 10:20:55;;;;;;;8.93;1.90;;;;;;;8.69;100.00;99994.34;5074945;28;20048;-58
2022/12/29 10:23:27;;;;;;;;;;;;;;;8.62;100.00;99999.16;5073998;28;20052;-57
2022/12/29 10:25:57;;;;;;;7.53;1.20;;;;;;;8.69;100.00;100003.03;5072516;28;20271;-58
2022/12/29 10:28:35;;;;;;;8.38;2.17;;;;;;;8.68;100.00;100003.13;5075770;28;20131;-57
2022/12/29 10:31:12;;;;;;;5.70;1.10;;;;;;;8.61;100.00;100008.81;5075437;28;20044;-53
2022/12/29 10:33:43;;;;;;;11.23;1.70;;;;;;;8.60;100.00;100012.38;5075157;28;20046;-52
2022/12/29 10:36:17;;;;;;;9.38;1.70;;;;;;;8.58;100.00;100008.19;5075351;28;20063;-53
2022/12/29 10:38:54;;;;;;;6.82;1.30;;;;;;;8.61;100.00;100021.91;5075487;28;20079;-53
2022/12/29 10:41:27;;;;;;;10.05;1.60;;;;;;;8.57;100.00;100030.09;5075299;28;20556;-53
2022/12/29 10:43:58;;;;;;;8.35;1.30;;;;;;;8.53;100.00;100016.38;5074489;28;20060;-54
2022/12/29 10:46:34;;;;;;;8.65;1.83;;;;;;;8.60;100.00;100020.25;5075222;28;20059;-54
2022/12/29 10:49:02;;;;;;;8.52;1.77;;;;;;;8.62;100.00;100036.69;5074909;28;20041;-53
2022/12/29 10:51:35;;;;;;;6.85;1.85;;;;;;;8.67;100.00;100044.25;5072252;28;20110;-53
2022/12/29 10:54:07;;;;;;;12.05;2.15;;;;;;;8.67;100.00;100051.25;5070940;28;20052;-50
2022/12/29 10:56:40;;;;;;;12.30;2.47;;;;;;;8.72;100.00;100055.22;5073808;28;20491;-50
2022/12/29 10:59:17;;;;;;;9.95;2.17;;;;;;;8.70;100.00;100057.16;5074495;28;20079;-53
2022/12/29 11:01:56;;;;;;;10.10;1.50;;;;;;;8.77;100.00;100068.03;5070374;28;20059;-51
2022/12/29 11:04:44;;;;;;;10.10;2.60;;;;;;;8.75;100.00;100065.53;5071924;28;20059;-52
2022/12/29 11:07:13;;;;;;;7.32;1.65;;;;;;;8.77;100.00;100061.00;5074685;28;20078;-53
2022/12/29 11:09:45;;;;;;;11.52;2.08;;;;;;;8.77;100.00;100065.41;5074563;28;20048;-50
2022/12/29 11:12:26;;;;;;;10.98;1.52;;;;;;;8.80;100.00;100086.16;5074608;28;20099;-50
2022/12/29 11:15:14;;;;;;;7.35;2.13;;;;;;;8.79;100.00;100081.88;5074668;28;20082;-58
2022/12/29 11:17:49;;;;;;;10.32;2.53;;;;;;;8.76;100.00;100075.03;5074043;28;20040;-59
2022/12/29 11:20:29;;;;;;;10.40;2.35;;;;;;;8.81;100.00;100093.09;5072606;28;20411;-58
2022/12/29 11:22:58;;;;;;;8.27;2.33;;;;;;;8.81;100.00;100100.97;5073263;28;20049;-58
2022/12/29 11:25:27;;;;;;;10.75;2.78;;;;;;;8.85;100.00;100105.06;5074835;28;20384;-59
2022/12/29 11:28:01;;;;;;;11.43;3.13;;;;;;;8.89;100.00;100096.03;5074508;28;20484;-58
2022/12/29 11:30:32;;;;;;;11.15;3.03;;;;;;;8.96;100.00;100099.06;5074064;28;20044;-52
2022/12/29 11:33:05;;;;;;;12.20;2.85;;;;;;;9.02;100.00;100097.78;5074152;28;20090;-54
2022/12/29 11:35:37;;;;;;;13.05;2.60;;;;;;;8.99;100.00;100101.47;5074370;28;20052;-54
2022/12/29 11:38:06;;;;;;;11.93;2.72;;;;;;;8.99;100.00;100101.47;5074583;28;20371;-55
2022/12/29 11:40:40;;;;;;;9.02;2.75;;;;;;;9.00;100.00;100115.41;5074210;28;20060;-53
2022/12/29 11:43:23;;;;;;;11.63;3.10;;;;;;;9.02;100.00;100108.28;5072728;28;20047;-53
2022/12/29 11:45:54;;;;;;;14.48;2.53;;;;;;;9.01;100.00;100117.91;5069814;28;20060;-53
2022/12/29 11:48:25;;;;;;;12.68;2.72;;;;;;;9.01;100.00;100117.91;5072257;28;20058;-52
2022/12/29 11:50:57;;;;;;;15.40;3.40;;;;;;;9.04;100.00;100135.22;5074299;28;20434;-58
2022/12/29 11:53:28;;;;;;;15.77;3.20;;;;;;;9.07;100.00;100127.97;5072960;28;20549;-59
2022/12/29 11:55:59;;;;;;;10.00;3.30;;;;;;;9.09;100.00;100128.72;5074097;28;20048;-59
2022/12/29 11:58:32;;;;;;;13.30;3.10;;;;;;;9.14;100.00;100120.53;5074190;28;20557;-59
2022/12/29 12:01:04;;;;;;;10.82;2.78;;;;;;;9.16;100.00;100136.16;5073898;28;20048;-58
2022/12/29 12:03:39;;;;;;;11.00;2.42;;;;;;;9.19;100.00;100138.56;5072574;28;20091;-59
2022/12/29 12:06:13;;;;;;;10.68;2.33;;;;;;;9.16;100.00;100144.84;5074244;28;20522;-58
2022/12/29 12:08:49;;;;;;;13.43;2.42;;;;;;;9.17;100.00;100151.78;5074000;28;20818;-58
2022/12/29 12:11:20;;;;;;;11.57;2.97;;;;;;;9.19;100.00;100151.66;5073782;28;20047;-59
2022/12/29 12:13:59;;;;;;;11.02;2.60;;;;;;;9.14;100.00;100142.34;5072262;28;20055;-59
2022/12/29 12:16:32;;;;;;;12.70;3.50;;;;;;;9.17;100.00;100141.28;5069227;28;20199;-59
2022/12/29 12:19:11;;;;;;;14.80;3.00;;;;;;;9.19;100.00;100149.03;5071201;28;20054;-58
2022/12/29 12:21:51;;;;;;;11.97;3.07;;;;;;;9.19;100.00;100139.41;5071990;28;20049;-59
2022/12/29 12:24:37;;;;;;;14.73;3.03;;;;;;;9.19;100.00;100149.91;5070277;28;20499;-59
2022/12/29 12:27:17;;;;;;;15.27;3.20;;;;;;;9.20;100.00;100156.81;5073654;28;20387;-59